createdAt,value
2019-01-08T00:00:15.327Z,101333.38
2019-01-08T00:02:43.703Z,101328.78
2019-01-08T00:05:12.083Z,101317.48
2019-01-08T00:07:40.453Z,101319.09
2019-01-08T00:10:08.840Z,101311.74
2019-01-08T00:12:37.461Z,101308.70
2019-01-08T00:15:12.608Z,101304.15
2019-01-08T00:17:40.975Z,101303.80
2019-01-08T00:20:10.294Z,101301.46
2019-01-08T00:22:39.576Z,101301.16
2019-01-08T00:25:07.954Z,101291.63
2019-01-08T00:27:36.331Z,101287.80
2019-01-08T00:30:07.046Z,101285.82
2019-01-08T00:32:35.428Z,101287.74
2019-01-08T00:35:03.808Z,101280.40
2019-01-08T00:37:32.180Z,101277.45
2019-01-08T00:40:00.576Z,101276.38
2019-01-08T00:42:28.948Z,101274.03
2019-01-08T00:44:57.341Z,101268.86
2019-01-08T00:47:25.721Z,101268.34
2019-01-08T00:49:54.108Z,101257.59
2019-01-08T00:52:22.476Z,101249.41
2019-01-08T00:54:50.846Z,101256.30
2019-01-08T00:57:19.234Z,101245.11
2019-01-08T00:59:47.602Z,101241.33
2019-01-08T01:02:15.983Z,101234.88
2019-01-08T01:04:44.360Z,101230.66
2019-01-08T01:07:12.746Z,101234.41
2019-01-08T01:09:41.124Z,101242.03
2019-01-08T01:12:09.506Z,101247.02
2019-01-08T01:14:37.873Z,101248.73
2019-01-08T01:17:06.576Z,101241.39
2019-01-08T01:19:34.946Z,101219.11
2019-01-08T01:22:03.327Z,101217.17
2019-01-08T01:24:31.704Z,101209.98
2019-01-08T01:27:00.193Z,101208.77
2019-01-08T01:29:28.571Z,101213.62
2019-01-08T01:31:56.956Z,101210.57
2019-01-08T01:34:25.328Z,101216.99
2019-01-08T01:36:53.712Z,101211.03
2019-01-08T01:39:22.089Z,101205.48
2019-01-08T01:41:50.703Z,101214.87
2019-01-08T01:44:19.078Z,101230.75
2019-01-08T01:46:47.458Z,101242.53
2019-01-08T01:49:15.844Z,101239.19
2019-01-08T01:51:44.214Z,101258.38
2019-01-08T01:54:12.602Z,101251.36
2019-01-08T01:56:41.903Z,101254.14
2019-01-08T01:59:10.279Z,101251.09
2019-01-08T02:01:38.896Z,101245.45
2019-01-08T02:04:07.671Z,101254.91
2019-01-08T02:06:36.061Z,101247.63
2019-01-08T02:09:05.825Z,101244.42
2019-01-08T02:11:34.191Z,101233.45
2019-01-08T02:14:02.583Z,101235.72
2019-01-08T02:16:31.197Z,101240.83
2019-01-08T02:18:59.580Z,101251.11
2019-01-08T02:21:27.979Z,101247.60
2019-01-08T02:23:56.359Z,101251.06
2019-01-08T02:26:24.737Z,101255.52
2019-01-08T02:28:53.122Z,101252.77
2019-01-08T02:31:21.499Z,101251.17
2019-01-08T02:33:49.871Z,101241.66
2019-01-08T02:36:18.262Z,101243.30
2019-01-08T02:38:48.549Z,101246.59
2019-01-08T02:41:17.254Z,101236.63
2019-01-08T02:43:45.966Z,101241.83
2019-01-08T02:46:14.402Z,101243.73
2019-01-08T02:48:42.884Z,101233.39
2019-01-08T02:51:11.263Z,101228.59
2019-01-08T02:53:39.640Z,101226.12
2019-01-08T02:56:08.030Z,101224.77
2019-01-08T02:58:36.405Z,101224.06
2019-01-08T03:18:24.902Z,101207.29
2019-01-08T03:20:53.374Z,101209.27
2019-01-08T03:23:21.740Z,101197.30
2019-01-08T03:25:50.134Z,101198.05
2019-01-08T03:35:27.450Z,101201.21
2019-01-08T03:37:55.829Z,101193.37
2019-01-08T03:40:24.206Z,101190.71
2019-01-08T03:42:52.583Z,101189.90
2019-01-08T03:45:20.956Z,101192.48
2019-01-08T03:47:49.342Z,101174.59
2019-01-08T03:50:17.715Z,101182.33
2019-01-08T03:52:46.109Z,101184.97
2019-01-08T03:55:14.477Z,101177.82
2019-01-08T03:57:43.092Z,101174.83
2019-01-08T04:00:12.298Z,101172.31
2019-01-08T04:02:40.919Z,101170.77
2019-01-08T04:05:09.325Z,101169.30
2019-01-08T04:11:33.044Z,101158.27
2019-01-08T04:14:01.431Z,101150.70
2019-01-08T04:16:29.804Z,101148.94
2019-01-08T04:18:58.189Z,101138.09
2019-01-08T04:39:30.630Z,101123.12
2019-01-08T04:41:59.237Z,101121.74
2019-01-08T04:44:27.625Z,101117.81
2019-01-08T04:46:55.991Z,101117.50
2019-01-08T04:49:24.382Z,101112.64
2019-01-08T04:51:52.763Z,101115.75
2019-01-08T04:54:21.173Z,101109.06
2019-01-08T04:56:49.633Z,101097.23
2019-01-08T04:59:17.999Z,101098.33
2019-01-08T05:01:46.619Z,101089.89
2019-01-08T05:04:14.989Z,101097.17
2019-01-08T05:06:43.366Z,101092.72
2019-01-08T05:09:11.750Z,101077.87
2019-01-08T05:11:40.124Z,101086.95
2019-01-08T05:14:08.500Z,101079.63
2019-01-08T05:16:36.900Z,101083.63
2019-01-08T05:19:05.263Z,101071.36
2019-01-08T05:21:33.651Z,101072.64
2019-01-08T05:24:02.024Z,101073.94
2019-01-08T05:26:30.587Z,101065.20
2019-01-08T05:28:58.977Z,101052.38
2019-01-08T05:31:27.373Z,101060.10
2019-01-08T05:33:56.938Z,101073.19
2019-01-08T05:36:25.334Z,101058.88
2019-01-08T05:38:53.709Z,101054.53
2019-01-08T05:41:23.078Z,101056.94
2019-01-08T05:43:51.449Z,101051.17
2019-01-08T05:46:19.838Z,101051.66
2019-01-08T05:48:48.216Z,101050.53
2019-01-08T05:51:16.880Z,101042.29
2019-01-08T05:53:45.261Z,101040.63
2019-01-08T05:56:13.652Z,101044.68
2019-01-08T05:58:42.027Z,101039.45
2019-01-08T06:01:10.394Z,101036.30
2019-01-08T06:03:38.774Z,101040.11
2019-01-08T06:06:07.186Z,101031.66
2019-01-08T06:08:35.545Z,101027.50
2019-01-08T06:11:03.928Z,101024.63
2019-01-08T06:13:32.305Z,101024.28
2019-01-08T06:16:00.681Z,101017.41
2019-01-08T06:18:29.085Z,101018.20
2019-01-08T06:20:57.470Z,101016.13
2019-01-08T06:23:25.847Z,101019.65
2019-01-08T06:25:54.234Z,101018.24
2019-01-08T06:28:22.603Z,101023.06
2019-01-08T06:30:50.977Z,101020.64
2019-01-08T06:33:19.347Z,101017.13
2019-01-08T06:35:47.734Z,101027.50
2019-01-08T06:38:16.114Z,101012.08
2019-01-08T06:40:44.499Z,101008.71
2019-01-08T06:43:12.859Z,101016.82
2019-01-08T06:45:41.239Z,101019.17
2019-01-08T06:48:09.606Z,101019.09
2019-01-08T06:50:37.988Z,101017.39
2019-01-08T06:53:06.361Z,101008.92
2019-01-08T06:55:34.739Z,101003.97
2019-01-08T06:58:03.108Z,101003.19
2019-01-08T07:00:33.445Z,101004.84
2019-01-08T07:03:01.584Z,100998.86
2019-01-08T07:05:29.969Z,101008.66
2019-01-08T07:07:58.336Z,100991.48
2019-01-08T07:10:26.711Z,100984.45
2019-01-08T07:12:56.053Z,100975.17
2019-01-08T07:15:24.417Z,100984.20
2019-01-08T07:17:52.796Z,100976.05
2019-01-08T07:20:21.169Z,100971.66
2019-01-08T07:22:49.553Z,100968.41
2019-01-08T07:25:17.941Z,100970.25
2019-01-08T07:27:46.347Z,100975.12
2019-01-08T07:30:14.751Z,100974.18
2019-01-08T07:32:43.134Z,100976.09
2019-01-08T07:35:12.481Z,100972.64
2019-01-08T07:38:02.107Z,100970.12
2019-01-08T07:40:30.488Z,100973.94
2019-01-08T07:42:58.876Z,100975.16
2019-01-08T07:45:27.249Z,100965.47
2019-01-08T07:47:55.716Z,100976.82
2019-01-08T07:50:24.105Z,100967.53
2019-01-08T07:52:53.434Z,100980.02
2019-01-08T07:55:21.807Z,100979.96
2019-01-08T07:57:50.446Z,100986.72
2019-01-08T08:00:18.797Z,100987.25
2019-01-08T08:02:47.244Z,100984.92
2019-01-08T08:05:15.612Z,100970.78
2019-01-08T08:07:43.988Z,100975.05
2019-01-08T08:10:18.201Z,100971.87
2019-01-08T08:12:46.585Z,100975.12
2019-01-08T08:15:14.949Z,100967.05
2019-01-08T08:17:43.344Z,100976.52
2019-01-08T08:20:14.684Z,100971.23
2019-01-08T08:22:43.067Z,100977.03
2019-01-08T08:25:11.455Z,100978.22
2019-01-08T08:27:40.077Z,100979.05
2019-01-08T08:30:10.012Z,100980.06
2019-01-08T08:32:38.407Z,100983.48
2019-01-08T08:35:08.768Z,100980.84
2019-01-08T08:37:39.685Z,100983.78
2019-01-08T08:40:08.375Z,100977.48
2019-01-08T08:42:36.737Z,100991.16
2019-01-08T08:45:08.573Z,100990.83
2019-01-08T08:47:36.994Z,100973.13
2019-01-08T08:50:06.624Z,100971.88
2019-01-08T08:52:35.024Z,100985.48
2019-01-08T08:55:03.465Z,100978.69
2019-01-08T08:57:33.329Z,100981.44
2019-01-08T09:00:01.700Z,100981.89
2019-01-08T09:02:30.081Z,100977.22
2019-01-08T09:04:58.467Z,100974.79
2019-01-08T09:07:26.837Z,100972.22
2019-01-08T09:09:55.446Z,100973.31
2019-01-08T09:12:23.828Z,100975.47
2019-01-08T09:14:52.206Z,100962.69
2019-01-08T09:17:20.586Z,100964.17
2019-01-08T09:19:48.957Z,100965.72
2019-01-08T09:22:17.345Z,100966.55
2019-01-08T09:24:45.709Z,100962.73
2019-01-08T09:27:14.096Z,100952.14
2019-01-08T09:29:42.468Z,100959.02
2019-01-08T09:32:10.862Z,100963.91
2019-01-08T09:34:39.305Z,100954.63
2019-01-08T09:37:07.688Z,100956.02
2019-01-08T09:39:36.055Z,100955.37
2019-01-08T09:42:04.506Z,100946.50
2019-01-08T09:44:33.112Z,100939.28
2019-01-08T09:47:01.496Z,100941.55
2019-01-08T09:49:29.870Z,100933.25
2019-01-08T09:51:58.271Z,100943.89
2019-01-08T09:54:26.651Z,100947.13
2019-01-08T09:56:55.014Z,100946.52
2019-01-08T09:59:23.411Z,100950.14
2019-01-08T10:01:51.801Z,100950.85
2019-01-08T10:04:20.187Z,100945.03
2019-01-08T10:06:48.558Z,100934.50
2019-01-08T10:09:16.945Z,100930.57
2019-01-08T10:11:45.317Z,100937.03
2019-01-08T10:14:14.520Z,100933.88
2019-01-08T10:16:42.892Z,100928.41
2019-01-08T10:19:11.275Z,100932.17
2019-01-08T10:21:39.644Z,100933.45
2019-01-08T10:24:08.034Z,100934.80
2019-01-08T10:26:36.414Z,100916.22
2019-01-08T10:29:04.818Z,100930.73
2019-01-08T10:31:33.200Z,100929.80
2019-01-08T10:34:01.576Z,100931.10
2019-01-08T10:36:29.963Z,100924.34
2019-01-08T10:38:58.334Z,100925.63
2019-01-08T10:41:26.712Z,100912.45
2019-01-08T10:43:55.074Z,100905.95
2019-01-08T10:46:23.453Z,100910.70
2019-01-08T10:48:51.839Z,100906.52
2019-01-08T10:51:20.222Z,100923.74
2019-01-08T10:53:48.826Z,100907.06
2019-01-08T10:56:17.203Z,100900.75
2019-01-08T10:58:45.577Z,100897.43
2019-01-08T11:01:13.941Z,100891.38
2019-01-08T11:03:42.345Z,100894.80
2019-01-08T11:06:10.707Z,100893.52
2019-01-08T11:08:39.103Z,100897.75
2019-01-08T11:11:07.483Z,100896.47
2019-01-08T11:13:36.118Z,100896.73
2019-01-08T11:16:04.499Z,100903.28
2019-01-08T11:18:32.875Z,100886.51
2019-01-08T11:21:01.253Z,100884.44
2019-01-08T11:23:29.632Z,100889.14
2019-01-08T11:25:57.998Z,100872.86
2019-01-08T11:28:26.386Z,100866.27
2019-01-08T11:30:54.766Z,100869.08
2019-01-08T11:33:23.144Z,100874.39
2019-01-08T11:35:51.582Z,100870.19
2019-01-08T11:38:19.965Z,100874.44
2019-01-08T11:40:48.369Z,100866.48
2019-01-08T11:43:16.746Z,100856.53
2019-01-08T11:45:45.126Z,100850.08
2019-01-08T11:48:14.522Z,100850.66
2019-01-08T11:50:42.906Z,100853.66
2019-01-08T11:53:11.515Z,100848.92
2019-01-08T11:55:39.892Z,100850.25
2019-01-08T11:58:08.264Z,100852.83
2019-01-08T12:00:36.639Z,100846.34
2019-01-08T12:03:05.022Z,100848.66
2019-01-08T12:05:33.393Z,100833.09
2019-01-08T12:08:01.768Z,100846.50
2019-01-08T12:10:32.067Z,100851.25
2019-01-08T12:13:00.449Z,100834.53
2019-01-08T12:15:28.824Z,100840.45
2019-01-08T12:17:57.222Z,100829.71
2019-01-08T12:20:25.606Z,100830.92
2019-01-08T12:22:54.287Z,100835.41
2019-01-08T12:25:22.668Z,100814.22
2019-01-08T12:27:51.040Z,100829.86
2019-01-08T12:30:19.420Z,100817.45
2019-01-08T12:32:47.811Z,100806.73
2019-01-08T12:35:16.191Z,100812.39
2019-01-08T12:37:44.568Z,100812.77
2019-01-08T12:40:13.017Z,100816.30
2019-01-08T12:42:41.661Z,100797.30
2019-01-08T12:45:10.013Z,100800.94
2019-01-08T12:47:38.394Z,100796.50
2019-01-08T12:50:08.012Z,100803.03
2019-01-08T12:52:36.389Z,100804.49
2019-01-08T12:55:05.009Z,100796.53
2019-01-08T12:57:33.388Z,100814.02
2019-01-08T13:00:01.757Z,100811.41
2019-01-08T13:02:30.132Z,100814.67
2019-01-08T13:04:58.733Z,100805.67
2019-01-08T13:07:27.344Z,100807.72
2019-01-08T13:09:55.718Z,100811.82
2019-01-08T13:12:24.110Z,100817.38
2019-01-08T13:14:52.599Z,100818.95
2019-01-08T13:17:20.970Z,100809.84
2019-01-08T13:19:50.339Z,100814.94
2019-01-08T13:22:18.829Z,100823.03
2019-01-08T13:24:47.285Z,100833.97
2019-01-08T13:27:15.667Z,100821.24
2019-01-08T13:29:44.052Z,100838.80
2019-01-08T13:32:12.437Z,100835.59
2019-01-08T13:34:40.879Z,100846.13
2019-01-08T13:37:09.260Z,100837.09
2019-01-08T13:39:37.638Z,100828.38
2019-01-08T13:42:06.008Z,100829.08
2019-01-08T13:44:34.392Z,100823.33
2019-01-08T13:47:02.761Z,100834.11
2019-01-08T13:49:31.149Z,100837.98
2019-01-08T13:51:59.527Z,100835.81
2019-01-08T13:54:27.912Z,100824.61
2019-01-08T13:56:56.278Z,100827.44
2019-01-08T13:59:24.723Z,100843.30
2019-01-08T14:01:53.091Z,100868.52
2019-01-08T14:04:21.493Z,100855.56
2019-01-08T14:06:50.862Z,100822.41
2019-01-08T14:09:20.161Z,100845.57
2019-01-08T14:11:48.541Z,100823.56
2019-01-08T14:14:16.914Z,100828.05
2019-01-08T14:16:45.317Z,100831.84
2019-01-08T14:19:13.693Z,100824.98
2019-01-08T14:21:42.068Z,100833.64
2019-01-08T14:24:10.443Z,100837.46
2019-01-08T14:26:39.059Z,100839.21
2019-01-08T14:29:07.439Z,100836.95
2019-01-08T14:31:36.159Z,100838.55
2019-01-08T14:34:04.612Z,100857.64
2019-01-08T14:36:32.995Z,100856.03
2019-01-08T14:39:01.365Z,100865.02
2019-01-08T14:41:29.739Z,100859.55
2019-01-08T14:43:58.122Z,100874.16
2019-01-08T14:46:26.492Z,100867.64
2019-01-08T14:48:54.873Z,100881.64
2019-01-08T14:51:23.489Z,100871.28
2019-01-08T14:53:52.831Z,100872.44
2019-01-08T14:56:21.202Z,100879.63
2019-01-08T14:58:49.589Z,100885.73
2019-01-08T15:01:19.839Z,100891.88
2019-01-08T15:03:48.221Z,100884.45
2019-01-08T15:06:16.659Z,100883.62
2019-01-08T15:08:45.068Z,100888.17
2019-01-08T15:11:13.416Z,100882.08
2019-01-08T15:13:41.843Z,100879.97
2019-01-08T15:16:10.238Z,100867.80
2019-01-08T15:18:38.620Z,100854.95
2019-01-08T15:21:07.954Z,100865.94
2019-01-08T15:23:36.350Z,100850.00
2019-01-08T15:26:04.725Z,100841.76
2019-01-08T15:28:33.289Z,100839.84
2019-01-08T15:31:01.655Z,100844.54
2019-01-08T15:33:30.028Z,100834.59
2019-01-08T15:35:58.409Z,100834.69
2019-01-08T15:38:26.783Z,100839.38
2019-01-08T15:40:55.163Z,100836.39
2019-01-08T15:43:24.558Z,100838.41
2019-01-08T15:45:52.939Z,100830.66
2019-01-08T15:48:21.329Z,100824.69
2019-01-08T15:50:55.711Z,100849.33
2019-01-08T15:53:24.103Z,100857.53
2019-01-08T15:55:52.477Z,100855.73
2019-01-08T15:58:20.848Z,100831.33
2019-01-08T16:00:49.302Z,100845.05
2019-01-08T16:03:17.668Z,100841.86
2019-01-08T16:05:51.790Z,100862.38
2019-01-08T16:08:20.165Z,100876.97
2019-01-08T16:10:49.469Z,100888.22
2019-01-08T16:13:18.763Z,100893.99
2019-01-08T16:15:47.217Z,100889.20
2019-01-08T16:18:18.614Z,100884.09
2019-01-08T16:20:46.995Z,100892.55
2019-01-08T16:23:17.290Z,100897.36
2019-01-08T16:25:45.673Z,100884.87
2019-01-08T16:28:14.043Z,100891.72
2019-01-08T16:30:43.454Z,100900.33
2019-01-08T16:33:16.176Z,100900.12
2019-01-08T16:35:42.898Z,100905.84
2019-01-08T16:38:11.269Z,100890.33
2019-01-08T16:40:39.912Z,100894.36
2019-01-08T16:43:08.285Z,100894.36
2019-01-08T16:45:36.834Z,100887.23
2019-01-08T16:48:06.132Z,100888.20
2019-01-08T16:50:36.448Z,100882.98
2019-01-08T16:53:04.825Z,100874.13
2019-01-08T16:55:33.212Z,100869.09
2019-01-08T16:58:01.660Z,100861.65
2019-01-08T17:00:31.245Z,100849.99
2019-01-08T17:02:59.845Z,100860.19
2019-01-08T17:05:29.157Z,100853.11
2019-01-08T17:07:57.531Z,100855.45
2019-01-08T17:10:25.913Z,100859.67
2019-01-08T17:13:00.138Z,100859.84
2019-01-08T17:15:29.429Z,100857.67
2019-01-08T17:17:57.805Z,100868.69
2019-01-08T17:20:26.223Z,100876.42
2019-01-08T17:22:54.604Z,100867.06
2019-01-08T17:25:22.993Z,100860.25
2019-01-08T17:27:51.369Z,100863.70
2019-01-08T17:30:19.823Z,100863.55
2019-01-08T17:32:48.231Z,100862.42
2019-01-08T17:35:16.608Z,100867.56
2019-01-08T17:37:45.051Z,100870.78
2019-01-08T17:40:14.427Z,100859.48
2019-01-08T17:42:42.798Z,100856.72
2019-01-08T17:45:11.458Z,100848.09
2019-01-08T17:47:39.822Z,100862.33
2019-01-08T17:50:08.534Z,100869.34
2019-01-08T17:52:36.908Z,100853.77
2019-01-08T17:55:05.720Z,100847.88
2019-01-08T17:57:34.086Z,100854.33
2019-01-08T18:00:02.467Z,100867.55
2019-01-08T18:02:31.792Z,100860.21
2019-01-08T18:05:00.177Z,100849.38
2019-01-08T18:07:28.557Z,100860.68
2019-01-08T18:09:56.966Z,100865.48
2019-01-08T18:12:25.318Z,100861.15
2019-01-08T18:14:53.818Z,100878.47
2019-01-08T18:17:23.267Z,100870.37
2019-01-08T18:19:51.636Z,100877.24
2019-01-08T18:22:20.991Z,100865.98
2019-01-08T18:24:49.440Z,100877.13
2019-01-08T18:27:17.815Z,100871.20
2019-01-08T18:29:47.138Z,100867.44
2019-01-08T18:32:15.549Z,100854.91
2019-01-08T18:34:44.127Z,100869.40
2019-01-08T18:37:12.506Z,100868.31
2019-01-08T18:39:41.049Z,100871.66
2019-01-08T18:42:09.435Z,100857.17
2019-01-08T18:44:38.043Z,100868.42
2019-01-08T18:47:06.432Z,100865.02
2019-01-08T18:49:34.808Z,100868.27
2019-01-08T18:52:03.439Z,100889.82
2019-01-08T18:54:31.817Z,100873.05
2019-01-08T18:57:00.431Z,100880.75
2019-01-08T18:59:28.811Z,100890.64
2019-01-08T19:01:57.195Z,100898.65
2019-01-08T19:04:25.567Z,100915.92
2019-01-08T19:06:53.942Z,100888.02
2019-01-08T19:09:33.341Z,100891.20
2019-01-08T19:12:01.711Z,100897.44
2019-01-08T19:14:32.738Z,100898.31
2019-01-08T19:17:02.097Z,100893.87
2019-01-08T19:19:30.471Z,100897.33
2019-01-08T19:22:00.841Z,100902.48
2019-01-08T19:24:29.180Z,100891.86
2019-01-08T19:26:58.592Z,100893.81
2019-01-08T19:29:27.140Z,100908.94
2019-01-08T19:31:55.489Z,100910.09
2019-01-08T19:34:23.872Z,100922.34
2019-01-08T19:36:52.245Z,100921.17
2019-01-08T19:39:20.617Z,100928.42
2019-01-08T19:41:49.908Z,100943.54
2019-01-08T19:44:18.296Z,100938.84
2019-01-08T19:46:46.691Z,100933.71
2019-01-08T19:49:15.084Z,100927.55
2019-01-08T19:51:45.643Z,100933.28
2019-01-08T19:54:14.028Z,100913.72
2019-01-08T19:56:43.734Z,100905.23
2019-01-08T19:59:12.282Z,100900.08
2019-01-08T20:01:41.616Z,100892.34
2019-01-08T20:04:17.731Z,100893.30
2019-01-08T20:06:41.420Z,100899.03
2019-01-08T20:09:11.722Z,100922.10
2019-01-08T20:11:40.097Z,100910.22
2019-01-08T20:14:08.481Z,100904.65
2019-01-08T20:16:36.855Z,100903.19
2019-01-08T20:19:05.298Z,100906.58
2019-01-08T20:21:33.679Z,100918.61
2019-01-08T20:24:06.471Z,100886.79
2019-01-08T20:26:32.179Z,100894.99
2019-01-08T20:29:00.767Z,100886.16
2019-01-08T20:31:30.084Z,100894.42
2019-01-08T20:33:58.476Z,100891.06
2019-01-08T20:36:26.860Z,100904.30
2019-01-08T20:38:55.242Z,100913.91
2019-01-08T20:41:23.626Z,100918.48
2019-01-08T20:43:53.004Z,100924.27
2019-01-08T20:46:22.334Z,100922.05
2019-01-08T20:48:50.722Z,100919.06
2019-01-08T20:51:19.368Z,100936.64
2019-01-08T20:53:47.745Z,100912.63
2019-01-08T20:56:16.193Z,100916.03
2019-01-08T20:58:44.582Z,100924.92
2019-01-08T21:01:12.976Z,100928.78
2019-01-08T21:03:41.382Z,100931.84
2019-01-08T21:06:15.683Z,100921.77
2019-01-08T21:08:44.108Z,100925.62
2019-01-08T21:11:13.200Z,100927.33
2019-01-08T21:13:41.578Z,100921.64
2019-01-08T21:16:09.960Z,100923.27
2019-01-08T21:18:38.399Z,100922.63
2019-01-08T21:21:06.736Z,100923.97
2019-01-08T21:23:35.360Z,100927.72
2019-01-08T21:26:03.728Z,100921.70
2019-01-08T21:28:32.117Z,100924.39
2019-01-08T21:31:00.503Z,100914.72
2019-01-08T21:33:29.796Z,100921.75
2019-01-08T21:35:59.123Z,100929.12
2019-01-08T21:38:27.548Z,100916.17
2019-01-08T21:40:56.879Z,100910.98
2019-01-08T21:43:25.262Z,100903.02
2019-01-08T21:45:53.901Z,100908.65
2019-01-08T21:48:22.490Z,100909.69
2019-01-08T21:50:50.888Z,100907.45
2019-01-08T21:53:19.244Z,100918.28
2019-01-08T21:55:47.612Z,100922.84
2019-01-08T21:58:15.994Z,100920.07
2019-01-08T22:00:44.366Z,100910.43
2019-01-08T22:03:12.763Z,100919.88
2019-01-08T22:05:41.132Z,100920.96
2019-01-08T22:08:09.517Z,100919.97
2019-01-08T22:10:37.891Z,100931.05
2019-01-08T22:13:06.273Z,100925.62
2019-01-08T22:15:34.648Z,100928.67
2019-01-08T22:18:03.025Z,100926.36
2019-01-08T22:20:31.404Z,100926.05
2019-01-08T22:22:59.796Z,100925.28
2019-01-08T22:25:28.487Z,100928.75
2019-01-08T22:27:56.934Z,100925.22
2019-01-08T22:30:25.328Z,100921.26
2019-01-08T22:32:53.770Z,100917.00
2019-01-08T22:35:22.216Z,100911.66
2019-01-08T22:37:50.592Z,100907.03
2019-01-08T22:40:18.969Z,100902.88
2019-01-08T22:42:47.340Z,100901.02
2019-01-08T22:45:15.793Z,100902.36
2019-01-08T22:47:44.254Z,100901.19
2019-01-08T22:50:12.693Z,100891.88
2019-01-08T22:52:41.071Z,100904.41
2019-01-08T22:55:09.527Z,100890.36
2019-01-08T22:57:37.972Z,100893.76
2019-01-08T23:00:29.814Z,100889.77
2019-01-08T23:02:58.212Z,100888.42
2019-01-08T23:05:26.587Z,100893.76
2019-01-08T23:07:54.974Z,100897.16
2019-01-08T23:10:23.349Z,100897.50
2019-01-08T23:12:51.966Z,100896.43
2019-01-08T23:15:20.722Z,100894.78
2019-01-08T23:17:49.333Z,100899.92
2019-01-08T23:20:18.013Z,100892.96
2019-01-08T23:22:46.659Z,100879.77
2019-01-08T23:25:15.040Z,100890.92
2019-01-08T23:27:43.436Z,100879.00
2019-01-08T23:30:11.949Z,100877.78
2019-01-08T23:32:40.337Z,100879.47
2019-01-08T23:35:08.862Z,100880.88
2019-01-08T23:37:37.261Z,100888.34
2019-01-08T23:40:07.837Z,100881.09
2019-01-08T23:42:36.217Z,100865.80
2019-01-08T23:45:05.647Z,100878.94
2019-01-08T23:47:34.018Z,100886.82
2019-01-08T23:50:02.466Z,100873.68
2019-01-08T23:52:33.893Z,100880.64
2019-01-08T23:55:04.875Z,100871.10
2019-01-08T23:57:36.438Z,100877.14
